Time;durP1;ratioP1;P1;durP2;ratioP2;P2;SDS_P1;SDS_P2;PMS_P1;PMS_P2;Temp;Humidity;BMP_temperature;BMP_pressure;BME280_temperature;BME280_humidity;BME280_pressure;Samples;Min_cycle;Max_cycle;Signal;HPM_P1;HPM_P2
2023/07/31 00:00:30;;;;;;;13.70;4.50;;;;;;;16.01;100.00;100871.44;5041860;28;20029;-71
2023/07/31 00:02:56;;;;;;;17.98;4.20;;;;;;;16.06;100.00;100865.63;5034701;28;20034;-70
2023/07/31 00:05:21;;;;;;;17.17;4.03;;;;;;;16.04;100.00;100852.75;5010460;28;20406;-69
2023/07/31 00:07:47;;;;;;;14.73;4.70;;;;;;;16.07;100.00;100859.41;5026482;28;20040;-69
2023/07/31 00:10:13;;;;;;;12.70;4.85;;;;;;;16.07;100.00;100859.41;5026714;28;20689;-70
2023/07/31 00:12:39;;;;;;;12.15;3.90;;;;;;;16.08;100.00;100869.66;5031122;28;20040;-70
2023/07/31 00:15:07;;;;;;;14.77;4.55;;;;;;;16.09;100.00;100870.50;5044631;28;20128;-70
2023/07/31 00:17:32;;;;;;;12.13;4.28;;;;;;;16.01;100.00;100873.22;5011649;28;20045;-70
2023/07/31 00:19:58;;;;;;;17.70;3.88;;;;;;;16.08;100.00;100859.19;5045642;23;20061;-75
2023/07/31 00:22:23;;;;;;;15.55;3.92;;;;;;;16.11;100.00;100863.25;5024357;28;20120;-76
2023/07/31 00:24:49;;;;;;;16.73;4.78;;;;;;;16.05;100.00;100870.06;5019656;28;20667;-77
2023/07/31 00:27:14;;;;;;;15.60;4.63;;;;;;;15.97;100.00;100859.72;5019506;28;20034;-77
2023/07/31 00:29:40;;;;;;;18.65;3.70;;;;;;;16.02;100.00;100852.13;5004673;28;20480;-75
2023/07/31 00:32:06;;;;;;;11.80;4.82;;;;;;;16.06;100.00;100852.56;5022133;28;20029;-75
2023/07/31 00:34:31;;;;;;;13.70;3.97;;;;;;;15.95;100.00;100857.31;5019975;28;20025;-75
2023/07/31 00:36:56;;;;;;;13.95;4.18;;;;;;;15.98;100.00;100852.72;5015861;28;20037;-78
2023/07/31 00:39:22;;;;;;;15.60;4.03;;;;;;;15.95;100.00;100849.47;5005768;28;22363;-75
2023/07/31 00:41:47;;;;;;;12.20;3.95;;;;;;;16.06;100.00;100855.97;5020873;28;20251;-76
2023/07/31 00:44:13;;;;;;;10.88;3.67;;;;;;;16.05;100.00;100854.38;5008977;28;20038;-77
2023/07/31 00:46:38;;;;;;;10.35;4.22;;;;;;;15.96;100.00;100852.88;5023175;28;20043;-78
2023/07/31 00:49:04;;;;;;;13.85;4.03;;;;;;;16.01;100.00;100855.75;5010303;28;20508;-76
2023/07/31 00:51:30;;;;;;;10.23;3.53;;;;;;;16.04;100.00;100852.75;5005639;28;20062;-75
2023/07/31 00:53:56;;;;;;;21.77;4.40;;;;;;;16.05;100.00;100854.38;5007613;28;20423;-77
2023/07/31 00:56:22;;;;;;;11.98;3.72;;;;;;;16.09;100.00;100850.38;5003571;28;20030;-75
2023/07/31 00:58:47;;;;;;;13.65;4.03;;;;;;;16.08;100.00;100853.16;5024857;28;20269;-76
2023/07/31 01:01:13;;;;;;;15.20;4.40;;;;;;;16.05;100.00;100843.06;5005601;28;20041;-76
2023/07/31 01:03:39;;;;;;;17.02;4.20;;;;;;;15.99;100.00;100836.81;5024138;28;20048;-76
2023/07/31 01:06:32;;;;;;;12.38;3.78;;;;;;;15.98;100.00;100848.28;5006461;28;20048;-75
2023/07/31 01:09:02;;;;;;;12.10;3.80;;;;;;;16.03;100.00;100835.44;5022579;28;20069;-76
2023/07/31 01:11:33;;;;;;;12.63;3.90;;;;;;;15.96;100.00;100839.81;5017485;28;20121;-75
2023/07/31 01:13:58;;;;;;;13.18;3.90;;;;;;;15.96;100.00;100830.16;5018417;28;20029;-75
2023/07/31 01:16:25;;;;;;;16.60;5.13;;;;;;;15.88;100.00;100832.09;5015716;28;20403;-75
2023/07/31 01:18:51;;;;;;;16.83;4.55;;;;;;;15.92;100.00;100836.78;5006815;28;20483;-74
2023/07/31 01:21:37;;;;;;;11.98;3.63;;;;;;;16.04;100.00;100829.19;5002681;28;20041;-74
2023/07/31 01:24:40;;;;;;;14.32;4.07;;;;;;;15.97;100.00;100841.41;5023576;28;20024;-77
2023/07/31 01:27:17;;;;;;;13.32;4.20;;;;;;;16.10;100.00;100838.09;5020194;28;20037;-77
2023/07/31 01:29:52;;;;;;;17.67;4.18;;;;;;;16.06;100.00;100835.03;5022198;28;20029;-76
2023/07/31 01:32:19;;;;;;;14.63;4.32;;;;;;;16.03;100.00;100838.06;5005743;28;20037;-75
2023/07/31 01:34:46;;;;;;;14.82;3.80;;;;;;;16.06;100.00;100839.47;5004946;28;20048;-76
2023/07/31 01:37:12;;;;;;;13.10;4.50;;;;;;;15.93;100.00;100840.19;5020788;28;20125;-77
2023/07/31 01:39:37;;;;;;;13.57;4.07;;;;;;;15.94;100.00;100829.53;4988882;28;20038;-75
2023/07/31 01:42:03;;;;;;;11.30;3.97;;;;;;;16.01;100.00;100832.22;5021990;28;20064;-76
2023/07/31 01:44:28;;;;;;;20.92;4.45;;;;;;;15.97;100.00;100830.97;5007064;28;20025;-75
2023/07/31 01:46:54;;;;;;;19.23;4.50;;;;;;;15.99;100.00;100823.72;5023904;28;20635;-75
2023/07/31 01:49:19;;;;;;;17.55;4.78;;;;;;;15.93;100.00;100824.50;5006480;28;20747;-75
2023/07/31 01:51:45;;;;;;;15.73;3.65;;;;;;;15.91;100.00;100816.03;5021228;28;20049;-75
2023/07/31 01:54:11;;;;;;;16.38;4.55;;;;;;;15.94;100.00;100811.25;5006965;28;20678;-76
2023/07/31 01:56:36;;;;;;;22.52;4.93;;;;;;;15.95;100.00;100812.03;5026064;28;20037;-76
2023/07/31 01:59:02;;;;;;;12.75;5.03;;;;;;;15.92;100.00;100810.63;5006266;28;20020;-75
2023/07/31 02:01:27;;;;;;;13.80;4.10;;;;;;;15.85;100.00;100803.72;5002954;28;20037;-76
2023/07/31 02:03:53;;;;;;;20.70;4.70;;;;;;;15.96;100.00;100804.00;5006001;28;20500;-76
2023/07/31 02:06:22;;;;;;;14.80;3.92;;;;;;;15.96;100.00;100800.59;5018696;28;20255;-74
2023/07/31 02:08:48;;;;;;;12.38;3.58;;;;;;;16.05;100.00;100809.06;5005773;28;20653;-74
2023/07/31 02:11:14;;;;;;;13.23;3.85;;;;;;;15.98;100.00;100810.88;5020526;28;20041;-75
2023/07/31 02:13:39;;;;;;;16.02;3.88;;;;;;;15.91;100.00;100805.56;5026201;28;20083;-72
2023/07/31 02:16:05;;;;;;;13.73;4.22;;;;;;;15.85;100.00;100807.16;5007759;28;20034;-75
2023/07/31 02:18:30;;;;;;;17.45;5.18;;;;;;;15.82;100.00;100806.72;5022372;28;20025;-74
2023/07/31 02:20:56;;;;;;;21.20;4.47;;;;;;;15.89;100.00;100797.13;5003205;28;20045;-79
2023/07/31 02:23:21;;;;;;;18.80;4.53;;;;;;;16.01;100.00;100798.22;5013382;28;20040;-75
2023/07/31 02:25:47;;;;;;;14.20;3.70;;;;;;;15.95;100.00;100804.19;5001918;28;20029;-75
2023/07/31 02:28:13;;;;;;;11.48;4.13;;;;;;;16.05;100.00;100798.63;5012788;28;21025;-73
2023/07/31 02:30:38;;;;;;;13.50;4.03;;;;;;;15.99;100.00;100799.38;5020321;28;20036;-76
2023/07/31 02:33:05;;;;;;;14.63;4.35;;;;;;;15.98;100.00;100792.56;5008400;28;20591;-77
2023/07/31 02:35:30;;;;;;;12.18;3.70;;;;;;;16.14;100.00;100800.09;5024011;28;20022;-75
2023/07/31 02:37:56;;;;;;;16.13;4.53;;;;;;;16.05;100.00;100793.38;5008961;28;20053;-75
2023/07/31 02:40:21;;;;;;;14.23;4.88;;;;;;;16.00;100.00;100782.72;5022529;28;20677;-76
2023/07/31 02:42:47;;;;;;;14.45;4.72;;;;;;;16.08;100.00;100788.59;5018197;28;20432;-76
2023/07/31 02:45:12;;;;;;;10.55;3.47;;;;;;;16.14;100.00;100780.00;5021653;28;20041;-74
2023/07/31 02:47:38;;;;;;;15.65;4.07;;;;;;;16.09;100.00;100777.13;5017679;28;20111;-75
2023/07/31 02:50:04;;;;;;;12.40;4.03;;;;;;;16.06;100.00;100780.13;5001632;28;20136;-74
2023/07/31 02:52:30;;;;;;;13.43;4.32;;;;;;;16.03;100.00;100775.28;5001505;28;20404;-72
2023/07/31 02:54:56;;;;;;;19.70;4.10;;;;;;;16.13;100.00;100767.91;5007537;28;20075;-75
2023/07/31 02:57:21;;;;;;;14.50;3.30;;;;;;;16.06;100.00;100767.03;5020563;28;20060;-74
2023/07/31 02:59:47;;;;;;;13.20;4.38;;;;;;;16.06;100.00;100766.25;5020878;28;20036;-74
2023/07/31 03:02:12;;;;;;;12.55;3.78;;;;;;;16.15;100.00;100768.50;5018747;28;20038;-74
2023/07/31 03:04:38;;;;;;;14.77;4.05;;;;;;;16.12;100.00;100768.09;5017688;28;20037;-72
2023/07/31 03:07:04;;;;;;;11.63;3.92;;;;;;;16.20;100.00;100767.13;5021329;28;20072;-75
2023/07/31 03:09:29;;;;;;;12.77;4.18;;;;;;;16.20;100.00;100761.88;4984127;28;20874;-74
2023/07/31 03:11:55;;;;;;;14.15;4.07;;;;;;;16.14;100.00;100758.22;5006389;28;20048;-74
2023/07/31 03:14:20;;;;;;;13.23;4.10;;;;;;;16.17;100.00;100762.28;5004109;28;20099;-75
2023/07/31 03:16:46;;;;;;;15.40;4.10;;;;;;;16.25;100.00;100765.53;5002737;28;20033;-74
2023/07/31 03:19:11;;;;;;;14.63;4.22;;;;;;;16.16;100.00;100766.69;5006094;28;20036;-76
2023/07/31 03:21:37;;;;;;;20.40;4.22;;;;;;;16.25;100.00;100762.91;5022088;28;20624;-75
2023/07/31 03:24:03;;;;;;;14.77;4.60;;;;;;;16.21;100.00;100769.53;5023755;28;20024;-75
2023/07/31 03:26:31;;;;;;;14.07;3.72;;;;;;;16.25;100.00;100768.16;5021053;28;20064;-73
2023/07/31 03:28:56;;;;;;;12.02;4.00;;;;;;;16.18;100.00;100767.34;5014926;28;20033;-74
2023/07/31 03:31:22;;;;;;;20.10;3.90;;;;;;;16.19;100.00;100761.09;5005352;28;20042;-74
2023/07/31 03:33:47;;;;;;;16.27;4.15;;;;;;;16.30;100.00;100757.13;5009387;28;20419;-73
2023/07/31 03:36:13;;;;;;;16.33;4.63;;;;;;;16.30;100.00;100764.97;5028616;28;20649;-73
2023/07/31 03:38:39;;;;;;;15.10;4.68;;;;;;;16.29;100.00;100758.09;5022980;28;20038;-73
2023/07/31 03:41:06;;;;;;;17.02;3.65;;;;;;;16.31;100.00;100758.72;5025309;28;20038;-74
2023/07/31 03:43:33;;;;;;;13.70;4.22;;;;;;;16.28;100.00;100746.03;5008347;28;20037;-77
2023/07/31 03:45:59;;;;;;;10.90;3.78;;;;;;;16.31;100.00;100743.00;5028565;28;20044;-72
2023/07/31 03:48:26;;;;;;;12.35;3.45;;;;;;;16.27;100.00;100747.84;5010181;28;20029;-74
2023/07/31 03:50:51;;;;;;;11.77;4.65;;;;;;;16.27;100.00;100736.56;5023829;28;20045;-73
2023/07/31 03:53:17;;;;;;;13.23;4.10;;;;;;;16.21;100.00;100740.75;5017746;28;20047;-72
2023/07/31 03:55:42;;;;;;;17.70;5.05;;;;;;;16.34;100.00;100740.81;5019111;28;20033;-74
2023/07/31 03:58:08;;;;;;;12.02;4.20;;;;;;;16.26;100.00;100741.00;5026212;28;20036;-74
2023/07/31 04:00:33;;;;;;;12.43;4.35;;;;;;;16.30;100.00;100736.97;5011713;28;20028;-76
2023/07/31 04:02:59;;;;;;;12.02;3.80;;;;;;;16.25;100.00;100741.19;5022361;28;20042;-72
2023/07/31 04:05:24;;;;;;;8.93;3.65;;;;;;;16.27;100.00;100726.91;5029325;28;20033;-75
2023/07/31 04:07:50;;;;;;;13.02;4.10;;;;;;;16.25;100.00;100731.53;5025150;28;20026;-75
2023/07/31 04:10:15;;;;;;;12.82;4.32;;;;;;;16.26;100.00;100732.34;5026951;28;20499;-74
2023/07/31 04:12:41;;;;;;;12.48;4.10;;;;;;;16.22;100.00;100729.31;5024651;28;20388;-75
2023/07/31 04:15:06;;;;;;;14.98;4.28;;;;;;;16.23;100.00;100722.25;5024513;28;20022;-74
2023/07/31 04:17:32;;;;;;;9.82;3.72;;;;;;;16.28;100.00;100723.28;5019176;28;20034;-71
2023/07/31 04:19:57;;;;;;;12.07;4.05;;;;;;;16.31;100.00;100722.09;5022606;28;20033;-75
2023/07/31 04:22:23;;;;;;;12.75;4.70;;;;;;;16.30;100.00;100716.06;5025030;28;20042;-73
2023/07/31 04:24:48;;;;;;;17.20;4.68;;;;;;;16.23;100.00;100714.41;5019430;28;20079;-74
2023/07/31 04:27:14;;;;;;;13.00;4.85;;;;;;;16.17;100.00;100723.06;5017891;28;20033;-74
2023/07/31 04:29:42;;;;;;;12.60;4.40;;;;;;;16.21;100.00;100724.28;5023230;28;20044;-74
2023/07/31 04:32:07;;;;;;;13.35;4.40;;;;;;;16.31;100.00;100716.84;5006724;28;20046;-74
2023/07/31 04:34:33;;;;;;;14.65;4.20;;;;;;;16.32;100.00;100714.06;5025733;28;20021;-75
2023/07/31 04:36:58;;;;;;;15.52;4.93;;;;;;;16.37;100.00;100707.41;5018386;28;20039;-74
2023/07/31 04:39:24;;;;;;;16.77;4.95;;;;;;;16.30;100.00;100708.22;5025039;28;20447;-74
2023/07/31 04:41:49;;;;;;;12.65;4.35;;;;;;;16.29;100.00;100695.31;5021708;28;20048;-74
2023/07/31 04:44:14;;;;;;;12.45;4.03;;;;;;;16.30;100.00;100697.75;5022457;28;20037;-74
2023/07/31 04:46:40;;;;;;;15.80;4.55;;;;;;;16.38;100.00;100698.56;5023036;28;20042;-73
2023/07/31 04:49:05;;;;;;;14.30;4.68;;;;;;;16.43;100.00;100688.34;5028562;28;20033;-71
2023/07/31 04:51:31;;;;;;;12.88;4.35;;;;;;;16.47;100.00;100685.13;5020622;28;20041;-73
2023/07/31 04:53:56;;;;;;;10.27;4.90;;;;;;;16.49;100.00;100688.34;5023680;28;20029;-73
2023/07/31 04:56:22;;;;;;;10.70;3.78;;;;;;;16.52;100.00;100689.78;5024332;28;20044;-72
2023/07/31 04:58:47;;;;;;;13.73;4.43;;;;;;;16.61;100.00;100685.13;5023130;28;20665;-74
2023/07/31 05:01:13;;;;;;;11.02;4.47;;;;;;;16.54;100.00;100680.72;5010605;28;20304;-74
2023/07/31 05:03:38;;;;;;;10.63;4.22;;;;;;;16.52;100.00;100682.72;5022315;28;20042;-73
2023/07/31 05:06:03;;;;;;;13.38;4.13;;;;;;;16.51;100.00;100682.91;5022171;28;20059;-73
2023/07/31 05:08:29;;;;;;;10.63;5.32;;;;;;;16.57;100.00;100683.94;5021431;28;20045;-73
2023/07/31 05:10:54;;;;;;;10.10;3.80;;;;;;;16.51;100.00;100678.47;5019262;28;20046;-75
2023/07/31 05:13:20;;;;;;;15.13;5.25;;;;;;;16.57;100.00;100666.41;5022347;28;20403;-75
2023/07/31 05:15:45;;;;;;;11.70;3.90;;;;;;;16.61;100.00;100658.97;5018457;28;20034;-72
2023/07/31 05:18:11;;;;;;;15.48;3.80;;;;;;;16.70;100.00;100665.63;5018826;28;20037;-72
2023/07/31 05:20:36;;;;;;;10.45;4.43;;;;;;;16.81;100.00;100659.00;5020802;28;20049;-72
2023/07/31 05:23:02;;;;;;;13.45;4.50;;;;;;;16.77;100.00;100642.09;5020743;28;20032;-73
2023/07/31 05:25:27;;;;;;;8.07;4.10;;;;;;;16.84;100.00;100650.75;5021296;28;20045;-74
2023/07/31 05:27:53;;;;;;;9.85;4.03;;;;;;;16.79;100.00;100645.31;5021403;28;20044;-75
2023/07/31 05:30:18;;;;;;;10.82;5.03;;;;;;;16.71;100.00;100641.06;5019746;28;20041;-74
2023/07/31 05:32:44;;;;;;;9.50;3.78;;;;;;;16.70;100.00;100637.63;5022120;28;20033;-73
2023/07/31 05:35:09;;;;;;;16.63;4.82;;;;;;;16.72;100.00;100638.22;5023654;28;20029;-73
2023/07/31 05:37:35;;;;;;;9.82;4.13;;;;;;;16.78;100.00;100648.91;5026187;28;20038;-72
2023/07/31 05:40:00;;;;;;;8.30;3.15;;;;;;;16.79;100.00;100640.06;5020098;28;20038;-73
2023/07/31 05:42:25;;;;;;;8.13;4.30;;;;;;;16.70;100.00;100637.63;5022728;28;20053;-74
2023/07/31 05:44:51;;;;;;;10.63;4.28;;;;;;;16.81;100.00;100633.63;5025278;28;20030;-74
2023/07/31 05:47:17;;;;;;;7.82;4.80;;;;;;;16.77;100.00;100632.41;5022100;28;20475;-73
2023/07/31 05:49:44;;;;;;;12.43;3.97;;;;;;;16.83;100.00;100639.50;5003046;28;20492;-76
2023/07/31 05:52:09;;;;;;;9.80;4.40;;;;;;;16.76;100.00;100637.84;5023452;28;20041;-74
2023/07/31 05:54:35;;;;;;;8.75;4.22;;;;;;;16.67;100.00;100639.84;5022088;28;20607;-73
2023/07/31 05:57:00;;;;;;;8.95;4.00;;;;;;;16.68;100.00;100644.09;5020830;28;20392;-74
2023/07/31 05:59:26;;;;;;;10.07;4.30;;;;;;;16.63;100.00;100634.22;5023412;28;20520;-78
2023/07/31 06:01:51;;;;;;;10.65;4.63;;;;;;;16.63;100.00;100629.00;5022675;28;20045;-76
2023/07/31 06:04:16;;;;;;;13.60;3.95;;;;;;;16.48;100.00;100628.34;5020636;28;20404;-76
2023/07/31 06:06:42;;;;;;;10.52;4.50;;;;;;;16.41;100.00;100620.50;5007181;28;20034;-74
2023/07/31 06:09:07;;;;;;;12.02;5.03;;;;;;;16.46;100.00;100628.56;5025095;28;20037;-75
2023/07/31 06:11:33;;;;;;;10.55;4.88;;;;;;;16.45;100.00;100626.94;5024730;28;20407;-77
2023/07/31 06:13:59;;;;;;;17.80;4.22;;;;;;;16.47;100.00;100624.94;5023774;28;20041;-75
2023/07/31 06:16:24;;;;;;;12.68;4.53;;;;;;;16.49;100.00;100619.50;5008666;28;20081;-77
2023/07/31 06:18:50;;;;;;;12.18;5.53;;;;;;;16.46;100.00;100632.97;5023957;28;20392;-75
2023/07/31 06:21:15;;;;;;;10.75;4.57;;;;;;;16.42;100.00;100637.00;5004745;28;20045;-77
2023/07/31 06:23:41;;;;;;;10.73;5.07;;;;;;;16.46;100.00;100633.78;5025260;28;20036;-76
2023/07/31 06:26:06;;;;;;;11.23;4.35;;;;;;;16.46;100.00;100641.66;5022491;28;20041;-75
2023/07/31 06:28:32;;;;;;;10.45;4.30;;;;;;;16.48;100.00;100642.25;5019609;28;20037;-76
2023/07/31 06:30:58;;;;;;;11.80;4.43;;;;;;;16.44;100.00;100637.59;5022416;28;20056;-75
2023/07/31 06:33:24;;;;;;;9.25;3.97;;;;;;;16.42;100.00;100645.63;5023071;28;20025;-75
2023/07/31 06:35:50;;;;;;;8.77;3.72;;;;;;;16.40;100.00;100650.25;5024606;28;20067;-76
2023/07/31 06:38:15;;;;;;;8.85;4.40;;;;;;;16.47;100.00;100648.47;5001453;28;20025;-76
2023/07/31 06:40:41;;;;;;;11.85;4.40;;;;;;;16.54;100.00;100648.50;5013531;28;20453;-76
2023/07/31 06:43:07;;;;;;;13.73;4.32;;;;;;;16.52;100.00;100650.50;5006362;28;20056;-77
2023/07/31 06:45:36;;;;;;;14.07;4.82;;;;;;;16.45;100.00;100647.06;5021317;28;20025;-77
2023/07/31 06:48:03;;;;;;;12.18;4.35;;;;;;;16.55;100.00;100637.81;5016561;28;20388;-75
2023/07/31 06:50:30;;;;;;;7.88;3.63;;;;;;;16.49;100.00;100640.44;5024937;28;20025;-79
2023/07/31 06:52:55;;;;;;;8.32;3.78;;;;;;;16.42;100.00;100643.03;5021091;28;20114;-76
2023/07/31 06:55:21;;;;;;;9.40;3.65;;;;;;;16.43;100.00;100631.56;5020684;28;20044;-75
2023/07/31 06:57:48;;;;;;;9.75;4.30;;;;;;;16.45;100.00;100632.16;5019943;28;20045;-74
2023/07/31 07:00:14;;;;;;;9.23;3.42;;;;;;;16.40;100.00;100624.09;5023023;28;20503;-76
2023/07/31 07:02:40;;;;;;;8.15;3.83;;;;;;;16.42;100.00;100627.31;5025030;28;20057;-74
2023/07/31 07:05:07;;;;;;;12.00;3.90;;;;;;;16.31;100.00;100625.28;5022926;28;20033;-76
2023/07/31 07:07:32;;;;;;;11.40;4.10;;;;;;;16.30;100.00;100627.09;5020936;28;20041;-74
2023/07/31 07:09:59;;;;;;;9.35;3.78;;;;;;;16.24;100.00;100634.94;5020766;28;20033;-75
2023/07/31 07:12:25;;;;;;;9.18;3.95;;;;;;;16.17;100.00;100628.88;5020258;28;20551;-74
2023/07/31 07:14:52;;;;;;;11.48;4.63;;;;;;;16.22;100.00;100614.22;5023437;28;20487;-77
2023/07/31 07:17:18;;;;;;;9.50;3.75;;;;;;;16.29;100.00;100622.91;5003726;28;20266;-76
2023/07/31 07:19:45;;;;;;;18.42;4.60;;;;;;;16.28;100.00;100628.31;5021630;28;20038;-76
2023/07/31 07:22:11;;;;;;;11.05;3.80;;;;;;;16.21;100.00;100623.06;5020409;28;20076;-74
2023/07/31 07:24:37;;;;;;;16.67;3.70;;;;;;;16.20;100.00;100636.31;5023620;28;20080;-75
2023/07/31 07:27:02;;;;;;;12.48;3.97;;;;;;;16.20;100.00;100637.16;5018579;28;20661;-74
2023/07/31 07:29:28;;;;;;;8.60;3.80;;;;;;;16.18;100.00;100633.94;5008492;28;20136;-74
2023/07/31 07:31:54;;;;;;;9.45;3.83;;;;;;;16.20;100.00;100626.69;5009287;28;20037;-75
2023/07/31 07:34:19;;;;;;;13.48;4.15;;;;;;;16.20;100.00;100633.72;5019970;28;20038;-74
2023/07/31 07:36:44;;;;;;;8.30;3.78;;;;;;;16.27;100.00;100632.72;5021564;28;20526;-73
2023/07/31 07:39:11;;;;;;;13.18;4.20;;;;;;;16.23;100.00;100633.31;5023418;28;20419;-73
2023/07/31 07:41:36;;;;;;;11.23;3.85;;;;;;;16.24;100.00;100629.72;5021344;28;20199;-75
2023/07/31 07:44:02;;;;;;;6.82;3.75;;;;;;;16.22;100.00;100623.84;5022040;28;20511;-74
2023/07/31 07:46:28;;;;;;;10.27;3.03;;;;;;;16.14;100.00;100617.81;5022358;28;20377;-74
2023/07/31 07:48:53;;;;;;;8.48;3.25;;;;;;;16.24;100.00;100621.88;5022595;28;20032;-75
2023/07/31 07:51:18;;;;;;;6.50;3.42;;;;;;;16.25;100.00;100613.00;5008328;28;20508;-74
2023/07/31 07:53:44;;;;;;;6.90;3.00;;;;;;;16.19;100.00;100604.13;5019176;28;20411;-74
2023/07/31 07:56:09;;;;;;;9.27;3.42;;;;;;;16.32;100.00;100596.31;5002453;28;20030;-75
2023/07/31 07:58:35;;;;;;;7.88;3.00;;;;;;;16.45;100.00;100600.78;5021740;28;20043;-75
2023/07/31 08:01:00;;;;;;;5.07;3.13;;;;;;;16.48;100.00;100591.69;5017787;28;20611;-74
2023/07/31 08:03:26;;;;;;;10.38;3.63;;;;;;;16.49;100.00;100596.75;5023124;28;20107;-75
2023/07/31 08:05:51;;;;;;;9.02;3.65;;;;;;;16.47;100.00;100587.50;5022586;28;20045;-74
2023/07/31 08:08:17;;;;;;;5.45;2.88;;;;;;;16.39;100.00;100590.28;5018579;28;20037;-79
2023/07/31 08:10:43;;;;;;;11.32;3.83;;;;;;;16.38;100.00;100591.31;5005392;28;20510;-75
2023/07/31 08:13:11;;;;;;;6.95;3.10;;;;;;;16.39;100.00;100585.03;5017278;28;20026;-76
2023/07/31 08:15:36;;;;;;;10.20;3.33;;;;;;;16.39;100.00;100592.91;5019116;28;20115;-75
2023/07/31 08:18:02;;;;;;;8.68;3.50;;;;;;;16.38;100.00;100586.06;5021236;28;20484;-75
2023/07/31 08:20:27;;;;;;;8.48;3.15;;;;;;;16.41;100.00;100580.44;5029834;28;20095;-78
2023/07/31 08:22:53;;;;;;;5.38;3.13;;;;;;;16.44;100.00;100577.41;5026287;28;20042;-77
2023/07/31 08:25:19;;;;;;;8.88;3.80;;;;;;;16.56;100.00;100578.44;5025775;28;20542;-77
2023/07/31 08:27:44;;;;;;;7.50;2.90;;;;;;;16.57;100.00;100561.72;5024029;28;20038;-76
2023/07/31 08:30:11;;;;;;;8.43;3.13;;;;;;;16.52;100.00;100572.00;5025084;28;20409;-75
2023/07/31 08:32:37;;;;;;;7.40;2.92;;;;;;;16.45;100.00;100561.50;5023314;28;20046;-76
2023/07/31 08:35:02;;;;;;;7.50;3.40;;;;;;;16.53;100.00;100561.31;5004246;28;20034;-76
2023/07/31 08:37:28;;;;;;;5.70;3.33;;;;;;;16.63;100.00;100560.94;5026862;28;20030;-75
2023/07/31 08:39:54;;;;;;;7.55;3.08;;;;;;;16.64;100.00;100569.59;5023446;28;20475;-76
2023/07/31 08:42:20;;;;;;;9.88;3.13;;;;;;;16.62;100.00;100572.41;5023370;28;20038;-77
2023/07/31 08:44:46;;;;;;;8.85;3.00;;;;;;;16.61;100.00;100572.59;5025400;28;20033;-74
2023/07/31 08:47:13;;;;;;;10.25;3.63;;;;;;;16.71;100.00;100573.81;5019572;28;20754;-77
2023/07/31 08:49:40;;;;;;;5.43;2.97;;;;;;;16.67;100.00;100570.00;5020751;28;20029;-77
2023/07/31 08:52:06;;;;;;;8.48;3.33;;;;;;;16.50;100.00;100574.00;5009622;28;20038;-74
2023/07/31 08:54:33;;;;;;;9.23;3.20;;;;;;;16.54;100.00;100576.03;5024055;28;20035;-72
2023/07/31 08:56:59;;;;;;;9.05;3.60;;;;;;;16.65;100.00;100579.03;5024625;28;20045;-74
2023/07/31 08:59:29;;;;;;;6.32;3.45;;;;;;;16.50;100.00;100581.84;5009216;28;20352;-72
2023/07/31 09:01:57;;;;;;;6.30;2.90;;;;;;;16.47;100.00;100585.66;5026817;28;20037;-75
2023/07/31 09:04:24;;;;;;;5.72;2.90;;;;;;;16.44;100.00;100583.44;5024397;28;20044;-76
2023/07/31 09:06:55;;;;;;;8.77;3.50;;;;;;;16.50;100.00;100594.91;5023106;28;20053;-74
2023/07/31 09:09:21;;;;;;;6.82;4.00;;;;;;;16.55;100.00;100588.09;5023635;28;20034;-73
2023/07/31 09:11:46;;;;;;;6.05;3.45;;;;;;;16.62;100.00;100585.47;5019960;28;20033;-72
2023/07/31 09:14:13;;;;;;;9.85;3.97;;;;;;;16.59;100.00;100585.88;5023430;28;20467;-73
2023/07/31 09:16:52;;;;;;;8.10;3.58;;;;;;;16.59;100.00;100582.47;5027440;28;20041;-73
2023/07/31 09:19:25;;;;;;;7.80;3.53;;;;;;;16.61;100.00;100577.81;5008198;28;20088;-72
2023/07/31 09:21:50;;;;;;;15.82;3.60;;;;;;;16.64;100.00;100573.00;5022891;28;20045;-73
2023/07/31 09:24:30;;;;;;;8.90;3.85;;;;;;;16.61;100.00;100573.38;5023396;28;20017;-76
2023/07/31 09:26:58;;;;;;;8.55;2.95;;;;;;;16.69;100.00;100578.44;5023091;28;20487;-76
2023/07/31 09:29:26;;;;;;;8.05;3.75;;;;;;;16.68;100.00;100570.78;5024873;28;20041;-78
2023/07/31 09:31:52;;;;;;;10.07;3.78;;;;;;;16.64;100.00;100570.38;5006241;28;20065;-75
2023/07/31 09:34:18;;;;;;;7.18;2.88;;;;;;;16.61;100.00;100568.16;5018438;28;20083;-75
2023/07/31 09:36:46;;;;;;;9.85;3.25;;;;;;;16.64;100.00;100569.59;5004393;28;20042;-75
2023/07/31 09:39:12;;;;;;;6.97;3.20;;;;;;;16.74;100.00;100568.19;5022469;28;20033;-77
2023/07/31 09:41:39;;;;;;;8.52;3.50;;;;;;;16.64;100.00;100573.00;5006284;28;20145;-75
2023/07/31 09:44:05;;;;;;;8.57;3.58;;;;;;;16.58;100.00;100570.41;5020749;28;20170;-75
2023/07/31 09:46:30;;;;;;;10.82;3.58;;;;;;;16.53;100.00;100556.06;5026109;28;20037;-75
2023/07/31 09:49:10;;;;;;;7.63;3.38;;;;;;;16.61;100.00;100562.91;5019302;28;20891;-74
2023/07/31 09:51:40;;;;;;;8.65;3.22;;;;;;;16.61;100.00;100555.06;5022847;28;20120;-77
2023/07/31 09:54:16;;;;;;;10.30;3.67;;;;;;;16.63;100.00;100557.50;5024247;28;20048;-74
2023/07/31 09:56:45;;;;;;;8.25;3.30;;;;;;;16.59;100.00;100559.69;5020874;28;20189;-74
2023/07/31 09:59:16;;;;;;;9.10;3.30;;;;;;;16.59;100.00;100548.44;5025090;28;20085;-76
2023/07/31 10:01:42;;;;;;;7.03;2.80;;;;;;;16.67;100.00;100551.66;5002288;28;20128;-74
2023/07/31 10:04:11;;;;;;;5.47;2.85;;;;;;;16.73;100.00;100552.66;5018198;28;20042;-76
2023/07/31 10:06:37;;;;;;;9.45;3.53;;;;;;;16.74;100.00;100556.88;5019862;28;20125;-76
2023/07/31 10:09:09;;;;;;;6.50;3.00;;;;;;;16.65;100.00;100545.84;5017575;28;20176;-77
2023/07/31 10:11:41;;;;;;;8.07;3.38;;;;;;;16.77;100.00;100553.88;5022865;28;20037;-77
2023/07/31 10:14:07;;;;;;;7.72;3.40;;;;;;;16.91;100.00;100550.28;5017896;28;20041;-78
2023/07/31 10:16:34;;;;;;;5.75;2.97;;;;;;;16.92;100.00;100549.25;5018952;28;20066;-76
2023/07/31 10:19:01;;;;;;;5.43;2.95;;;;;;;16.88;100.00;100547.25;5014117;28;20045;-77
2023/07/31 10:21:27;;;;;;;6.15;3.33;;;;;;;17.02;100.00;100545.41;5014401;28;20061;-76
2023/07/31 10:23:54;;;;;;;6.30;2.85;;;;;;;16.98;100.00;100547.63;5008573;28;20045;-76
2023/07/31 10:26:21;;;;;;;8.88;3.13;;;;;;;17.03;100.00;100541.78;5019384;28;20041;-78
2023/07/31 10:28:48;;;;;;;6.15;2.72;;;;;;;17.06;100.00;100543.97;5025552;28;20040;-75
2023/07/31 10:31:15;;;;;;;5.20;3.10;;;;;;;17.09;100.00;100540.97;5021406;28;20048;-77
2023/07/31 10:33:41;;;;;;;6.20;2.70;;;;;;;17.11;100.00;100534.50;5028250;28;20029;-76
2023/07/31 10:36:19;;;;;;;12.23;3.40;;;;;;;17.22;100.00;100540.13;5024194;28;20037;-75
2023/07/31 10:38:48;;;;;;;4.68;2.72;;;;;;;17.17;100.00;100540.72;5025265;28;20037;-77
2023/07/31 10:41:14;;;;;;;8.75;3.03;;;;;;;17.23;100.00;100539.09;5019028;28;20395;-77
2023/07/31 10:43:39;;;;;;;6.57;3.30;;;;;;;17.25;100.00;100535.28;5009077;28;20128;-80
2023/07/31 10:46:12;;;;;;;7.18;3.08;;;;;;;17.28;100.00;100536.69;5022446;28;20057;-80
2023/07/31 10:48:41;;;;;;;;;;;;;;;17.15;100.00;100534.09;5026054;28;20147;-74
2023/07/31 10:51:09;;;;;;;5.10;2.58;;;;;;;17.17;100.00;100530.25;5005352;28;19979;-77
2023/07/31 10:53:35;;;;;;;11.18;2.80;;;;;;;17.10;100.00;100527.66;5008357;28;20033;-75
2023/07/31 10:56:01;;;;;;;4.88;2.58;;;;;;;17.15;100.00;100534.91;5006960;28;20372;-74
2023/07/31 10:58:27;;;;;;;5.50;2.83;;;;;;;17.21;100.00;100531.44;5019084;28;20128;-74
2023/07/31 11:00:58;;;;;;;7.22;2.78;;;;;;;17.24;100.00;100527.63;5020597;28;20035;-74
2023/07/31 11:03:44;;;;;;;6.35;2.50;;;;;;;17.19;100.00;100527.44;5000588;28;20022;-76
2023/07/31 11:06:09;;;;;;;4.80;2.35;;;;;;;17.25;100.00;100524.81;5021264;28;20037;-76
2023/07/31 11:08:41;;;;;;;8.80;2.70;;;;;;;17.39;100.00;100522.13;5022588;28;20063;-74